createdAt,value
2023-05-10T00:00:23.600Z,11.42
2023-05-10T00:02:50.947Z,11.48
2023-05-10T00:05:17.993Z,11.49
2023-05-10T00:07:45.137Z,11.51
2023-05-10T00:10:12.811Z,11.53
2023-05-10T00:12:39.853Z,11.51
2023-05-10T00:15:07.700Z,11.55
2023-05-10T00:17:34.576Z,11.52
2023-05-10T00:20:01.577Z,11.48
2023-05-10T00:22:28.522Z,11.39
2023-05-10T00:24:55.387Z,11.50
2023-05-10T00:27:22.245Z,11.30
2023-05-10T00:29:49.118Z,11.32
2023-05-10T00:32:16.056Z,11.20
2023-05-10T00:34:43.060Z,11.21
2023-05-10T00:37:09.912Z,11.16
2023-05-10T00:39:36.744Z,11.05
2023-05-10T00:42:03.680Z,11.14
2023-05-10T00:44:30.709Z,10.98
2023-05-10T00:46:58.209Z,11.04
2023-05-10T00:49:25.057Z,11.09
2023-05-10T00:51:52.322Z,11.12
2023-05-10T00:54:19.263Z,10.98
2023-05-10T00:56:46.097Z,10.99
2023-05-10T00:59:12.960Z,11.11
2023-05-10T01:01:39.928Z,11.09
2023-05-10T01:04:06.884Z,11.25
2023-05-10T01:06:33.901Z,11.05
2023-05-10T01:09:00.837Z,11.09
2023-05-10T01:11:27.983Z,11.08
2023-05-10T01:13:58.265Z,11.07
2023-05-10T01:16:27.365Z,11.14
2023-05-10T01:18:54.445Z,11.21
2023-05-10T01:21:42.125Z,11.24
2023-05-10T01:24:51.216Z,11.20
2023-05-10T01:27:59.391Z,11.29
2023-05-10T01:31:01.381Z,11.32
2023-05-10T01:33:36.028Z,11.37
2023-05-10T01:36:28.082Z,11.39
2023-05-10T01:39:15.234Z,11.36
2023-05-10T01:41:53.696Z,11.46
2023-05-10T01:44:41.503Z,11.42
2023-05-10T01:47:18.211Z,11.46
2023-05-10T01:49:50.654Z,11.46
2023-05-10T01:52:20.962Z,11.30
2023-05-10T01:54:56.878Z,11.36
2023-05-10T01:57:28.852Z,11.42
2023-05-10T01:59:57.382Z,11.33
2023-05-10T02:02:26.917Z,11.31
2023-05-10T02:04:55.476Z,11.28
2023-05-10T02:07:24.530Z,11.28
2023-05-10T02:09:52.072Z,11.19
2023-05-10T02:12:20.082Z,11.28
2023-05-10T02:14:48.152Z,11.30
2023-05-10T02:17:15.904Z,11.29
2023-05-10T02:19:44.323Z,11.30
2023-05-10T02:22:12.922Z,11.38
2023-05-10T02:24:41.486Z,11.44
2023-05-10T02:27:10.034Z,11.28
2023-05-10T02:29:38.181Z,11.31
2023-05-10T02:32:05.792Z,11.30
2023-05-10T02:34:33.514Z,11.19
2023-05-10T02:37:02.829Z,11.30
2023-05-10T02:39:32.876Z,11.25
2023-05-10T02:42:00.890Z,11.17
2023-05-10T02:44:30.539Z,11.08
2023-05-10T02:46:57.311Z,11.12
2023-05-10T02:49:24.243Z,11.02
2023-05-10T02:51:57.631Z,11.08
2023-05-10T02:54:30.621Z,10.99
2023-05-10T02:57:05.044Z,10.96
2023-05-10T02:59:32.267Z,11.11
2023-05-10T03:02:00.160Z,10.97
2023-05-10T03:04:27.326Z,10.97
2023-05-10T03:06:54.205Z,10.90
2023-05-10T03:09:21.127Z,10.90
2023-05-10T03:12:05.331Z,10.86
2023-05-10T03:14:54.537Z,10.87
2023-05-10T03:17:51.008Z,10.87
2023-05-10T03:20:25.746Z,10.75
2023-05-10T03:23:18.732Z,10.66
2023-05-10T03:25:49.177Z,10.85
2023-05-10T03:28:17.236Z,10.88
2023-05-10T03:30:45.182Z,10.81
2023-05-10T03:33:12.126Z,10.85
2023-05-10T03:35:38.900Z,10.89
2023-05-10T03:38:05.867Z,10.99
2023-05-10T03:40:32.658Z,11.01
2023-05-10T03:43:00.188Z,11.02
2023-05-10T03:45:27.545Z,10.94
2023-05-10T03:47:54.486Z,10.84
2023-05-10T03:50:21.959Z,10.67
2023-05-10T03:52:49.054Z,10.73
2023-05-10T03:55:16.397Z,10.73
2023-05-10T03:57:43.435Z,10.79
2023-05-10T04:00:11.378Z,10.90
2023-05-10T04:02:38.642Z,10.72
2023-05-10T04:05:06.070Z,10.72
2023-05-10T04:07:32.982Z,10.86
2023-05-10T04:09:59.815Z,10.91
2023-05-10T04:12:29.845Z,10.91
2023-05-10T04:14:56.784Z,10.95
2023-05-10T04:17:23.664Z,11.05
2023-05-10T04:19:50.449Z,11.05
2023-05-10T04:22:17.311Z,11.11
2023-05-10T04:24:44.164Z,11.13
2023-05-10T04:27:11.081Z,11.24
2023-05-10T04:29:38.150Z,10.94
2023-05-10T04:32:05.392Z,11.06
2023-05-10T04:34:32.244Z,11.06
2023-05-10T04:36:59.215Z,11.01
2023-05-10T04:39:26.153Z,10.84
2023-05-10T04:41:55.918Z,10.87
2023-05-10T04:44:23.111Z,10.93
2023-05-10T04:46:50.028Z,10.98
2023-05-10T04:49:16.878Z,11.05
2023-05-10T04:51:44.077Z,11.15
2023-05-10T04:54:11.115Z,11.18
2023-05-10T04:56:38.032Z,11.20
2023-05-10T04:59:05.547Z,11.25
2023-05-10T05:01:32.542Z,11.37
2023-05-10T05:03:59.998Z,11.33
2023-05-10T05:06:30.044Z,11.35
2023-05-10T05:08:57.037Z,11.46
2023-05-10T05:11:29.660Z,11.53
2023-05-10T05:13:56.627Z,11.71
2023-05-10T05:16:23.567Z,11.90
2023-05-10T05:18:50.506Z,11.98
2023-05-10T05:21:18.951Z,11.98
2023-05-10T05:23:54.931Z,11.97
2023-05-10T05:26:24.927Z,12.11
2023-05-10T05:28:51.872Z,12.05
2023-05-10T05:31:18.761Z,12.09
2023-05-10T05:33:45.832Z,12.39
2023-05-10T05:36:12.768Z,12.67
2023-05-10T05:38:39.699Z,12.68
2023-05-10T05:41:06.707Z,12.55
2023-05-10T05:43:34.562Z,12.66
2023-05-10T05:46:02.525Z,12.58
2023-05-10T05:48:31.974Z,12.62
2023-05-10T05:50:59.203Z,12.63
2023-05-10T05:53:26.471Z,12.53
2023-05-10T05:55:54.261Z,12.62
2023-05-10T05:58:21.854Z,12.59
2023-05-10T06:00:49.083Z,12.47
2023-05-10T06:03:16.159Z,12.40
2023-05-10T06:05:43.177Z,12.68
2023-05-10T06:08:10.133Z,12.63
2023-05-10T06:10:37.680Z,12.95
2023-05-10T06:13:04.975Z,12.83
2023-05-10T06:15:31.847Z,12.83
2023-05-10T06:17:58.822Z,12.89
2023-05-10T06:20:26.133Z,12.92
2023-05-10T06:22:53.024Z,12.99
2023-05-10T06:25:20.040Z,13.34
2023-05-10T06:27:50.494Z,13.30
2023-05-10T06:30:19.806Z,13.37
2023-05-10T06:32:46.753Z,13.21
2023-05-10T06:35:13.817Z,13.18
2023-05-10T06:37:40.873Z,13.12
2023-05-10T06:40:08.462Z,13.25
2023-05-10T06:42:36.483Z,13.57
2023-05-10T06:45:03.686Z,13.40
2023-05-10T06:47:30.604Z,13.44
2023-05-10T06:49:57.487Z,13.58
2023-05-10T06:52:24.494Z,13.53
2023-05-10T06:54:51.422Z,13.47
2023-05-10T06:57:30.677Z,13.41
2023-05-10T06:59:59.559Z,13.44
2023-05-10T07:02:26.580Z,13.43
2023-05-10T07:04:53.708Z,13.48
2023-05-10T07:07:20.626Z,13.54
2023-05-10T07:09:47.758Z,13.37
2023-05-10T07:12:15.874Z,13.65
2023-05-10T07:14:43.492Z,13.52
2023-05-10T07:17:10.872Z,13.56
2023-05-10T07:19:37.948Z,13.33
2023-05-10T07:22:05.046Z,13.28
2023-05-10T07:24:33.509Z,13.40
2023-05-10T07:27:00.712Z,13.54
2023-05-10T07:29:27.784Z,13.83
2023-05-10T07:31:56.389Z,13.69
2023-05-10T07:34:24.889Z,13.71
2023-05-10T07:36:51.721Z,13.76
2023-05-10T07:39:26.707Z,13.71
2023-05-10T07:41:56.053Z,13.88
2023-05-10T07:44:23.293Z,14.02
2023-05-10T07:46:50.528Z,14.15
2023-05-10T07:49:17.593Z,14.22
2023-05-10T07:51:44.473Z,14.22
2023-05-10T07:54:11.420Z,14.16
2023-05-10T07:56:38.435Z,14.44
2023-05-10T07:59:05.572Z,14.58
2023-05-10T08:01:33.098Z,14.81
2023-05-10T08:04:00.170Z,15.34
2023-05-10T08:06:27.318Z,15.59
2023-05-10T08:08:54.266Z,16.01
2023-05-10T08:11:21.819Z,16.72
2023-05-10T08:13:50.559Z,17.07
2023-05-10T08:16:18.330Z,16.64
2023-05-10T08:18:47.111Z,16.22
2023-05-10T08:21:15.063Z,16.20
2023-05-10T08:23:42.104Z,15.71
2023-05-10T08:26:08.972Z,16.05
2023-05-10T08:28:35.882Z,16.24
2023-05-10T08:31:02.715Z,16.35
2023-05-10T08:33:29.749Z,16.21
2023-05-10T08:35:56.550Z,16.17
2023-05-10T08:38:23.403Z,16.27
2023-05-10T08:40:50.912Z,16.34
2023-05-10T08:43:17.760Z,16.24
2023-05-10T08:45:46.170Z,16.13
2023-05-10T08:48:13.294Z,16.32
2023-05-10T08:50:42.122Z,16.31
2023-05-10T08:53:14.618Z,15.74
2023-05-10T08:55:42.003Z,15.78
2023-05-10T08:58:09.564Z,16.06
2023-05-10T09:00:37.463Z,16.17
2023-05-10T09:03:05.675Z,16.39
2023-05-10T09:05:32.686Z,16.21
2023-05-10T09:07:59.665Z,16.17
2023-05-10T09:10:27.268Z,16.12
2023-05-10T09:12:54.950Z,16.46
2023-05-10T09:15:21.962Z,16.33
2023-05-10T09:17:50.608Z,16.16
2023-05-10T09:20:17.676Z,16.20
2023-05-10T09:22:45.069Z,16.59
2023-05-10T09:25:16.097Z,16.74
2023-05-10T09:27:47.693Z,16.30
2023-05-10T09:30:24.168Z,16.35
2023-05-10T09:32:51.362Z,16.45
2023-05-10T09:35:21.015Z,16.45
2023-05-10T09:37:50.237Z,16.71
2023-05-10T09:40:19.290Z,16.97
2023-05-10T09:42:57.704Z,16.86
2023-05-10T09:45:26.552Z,17.18
2023-05-10T09:47:53.794Z,17.31
2023-05-10T09:50:22.003Z,17.39
2023-05-10T09:53:02.203Z,18.01
2023-05-10T09:55:42.554Z,18.34
2023-05-10T09:58:09.476Z,18.43
2023-05-10T10:00:41.859Z,18.94
2023-05-10T10:03:15.123Z,19.40
2023-05-10T10:05:43.657Z,19.43
2023-05-10T10:08:11.434Z,18.61
2023-05-10T10:10:38.818Z,18.03
2023-05-10T10:13:05.775Z,17.80
2023-05-10T10:15:34.514Z,17.97
2023-05-10T10:18:01.938Z,17.81
2023-05-10T10:20:29.333Z,17.63
2023-05-10T10:22:56.296Z,17.55
2023-05-10T10:25:24.022Z,17.07
2023-05-10T10:27:53.611Z,16.76
2023-05-10T10:30:48.270Z,16.87
2023-05-10T10:33:36.386Z,17.25
2023-05-10T10:36:05.188Z,17.57
2023-05-10T10:39:01.865Z,17.86
2023-05-10T10:41:34.588Z,17.63
2023-05-10T10:44:27.432Z,17.60
2023-05-10T10:47:12.848Z,17.67
2023-05-10T10:49:45.228Z,17.77
2023-05-10T10:52:26.658Z,17.90
2023-05-10T10:55:00.650Z,17.85
2023-05-10T10:57:28.303Z,17.58
2023-05-10T11:00:22.540Z,17.71
2023-05-10T11:02:59.044Z,17.84
2023-05-10T11:05:29.920Z,17.94
2023-05-10T11:07:58.783Z,17.89
2023-05-10T11:10:29.251Z,17.52
2023-05-10T11:13:11.572Z,17.85
2023-05-10T11:15:41.781Z,18.06
2023-05-10T11:18:31.467Z,18.08
2023-05-10T11:21:02.803Z,18.12
2023-05-10T11:23:33.188Z,17.91
2023-05-10T11:26:01.768Z,17.86
2023-05-10T11:28:28.772Z,17.98
2023-05-10T11:30:55.999Z,18.30
2023-05-10T11:33:22.886Z,18.56
2023-05-10T11:35:49.784Z,18.53
2023-05-10T11:38:16.721Z,18.80
2023-05-10T11:40:44.464Z,18.75
2023-05-10T11:43:11.499Z,18.89
2023-05-10T11:45:38.487Z,19.09
2023-05-10T11:48:05.749Z,19.06
2023-05-10T11:50:32.663Z,19.28
2023-05-10T11:52:59.550Z,19.50
2023-05-10T11:55:26.409Z,19.71
2023-05-10T11:58:01.120Z,19.59
2023-05-10T12:00:28.319Z,18.96
2023-05-10T12:02:55.489Z,18.46
2023-05-10T12:05:23.125Z,18.12
2023-05-10T12:07:49.850Z,17.44
2023-05-10T12:10:16.839Z,17.48
2023-05-10T12:12:45.860Z,17.28
2023-05-10T12:15:23.938Z,17.24
2023-05-10T12:17:51.594Z,17.05
2023-05-10T12:20:21.296Z,17.07
2023-05-10T12:22:52.036Z,17.09
2023-05-10T12:25:21.043Z,16.92
2023-05-10T12:27:53.503Z,16.74
2023-05-10T12:30:31.163Z,17.00
2023-05-10T12:33:12.124Z,17.01
2023-05-10T12:35:53.337Z,16.99
2023-05-10T12:38:26.704Z,16.84
2023-05-10T12:40:53.601Z,17.08
2023-05-10T12:43:20.509Z,16.89
2023-05-10T12:45:48.707Z,16.89
2023-05-10T12:48:16.351Z,16.93
2023-05-10T12:50:43.223Z,17.18
2023-05-10T12:53:10.051Z,17.26
2023-05-10T12:55:36.805Z,17.30
2023-05-10T12:58:03.535Z,17.45
2023-05-10T13:00:30.351Z,17.57
2023-05-10T13:02:57.276Z,17.37
2023-05-10T13:05:24.159Z,17.37
2023-05-10T13:07:51.117Z,17.57
2023-05-10T13:10:19.908Z,17.41
2023-05-10T13:12:46.871Z,17.13
2023-05-10T13:15:13.706Z,16.85
2023-05-10T13:17:40.539Z,16.74
2023-05-10T13:20:07.986Z,16.98
2023-05-10T13:22:40.383Z,17.29
2023-05-10T13:25:08.156Z,17.28
2023-05-10T13:27:34.922Z,17.33
2023-05-10T13:30:02.308Z,17.38
2023-05-10T13:32:29.203Z,17.04
2023-05-10T13:34:56.821Z,16.88
2023-05-10T13:37:23.674Z,16.66
2023-05-10T13:39:50.476Z,16.49
2023-05-10T13:42:17.353Z,16.32
2023-05-10T13:44:44.126Z,16.34
2023-05-10T13:47:10.983Z,16.31
2023-05-10T13:49:37.917Z,16.39
2023-05-10T13:52:05.147Z,16.46
2023-05-10T13:54:32.000Z,16.42
2023-05-10T13:56:58.946Z,16.24
2023-05-10T13:59:28.495Z,16.15
2023-05-10T14:01:55.487Z,16.12
2023-05-10T14:04:22.386Z,16.02
2023-05-10T14:06:49.291Z,15.95
2023-05-10T14:09:16.144Z,15.92
2023-05-10T14:11:43.283Z,15.74
2023-05-10T14:14:10.846Z,15.70
2023-05-10T14:16:37.729Z,15.51
2023-05-10T14:19:04.849Z,15.55
2023-05-10T14:21:31.922Z,15.60
2023-05-10T14:23:58.817Z,15.45
2023-05-10T14:26:25.806Z,15.46
2023-05-10T14:28:52.787Z,15.38
2023-05-10T14:31:19.815Z,15.41
2023-05-10T14:33:47.113Z,15.28
2023-05-10T14:36:14.589Z,15.38
2023-05-10T14:38:41.960Z,15.29
2023-05-10T14:41:10.639Z,15.27
2023-05-10T14:43:38.683Z,15.19
2023-05-10T14:46:05.493Z,15.24
2023-05-10T14:48:32.565Z,15.15
2023-05-10T14:50:59.646Z,15.02
2023-05-10T14:53:26.476Z,14.98
2023-05-10T14:55:53.532Z,15.00
2023-05-10T14:58:20.778Z,14.98
2023-05-10T15:00:47.694Z,14.92
2023-05-10T15:03:15.761Z,14.94
2023-05-10T15:05:43.460Z,14.89
2023-05-10T15:08:13.104Z,14.89
2023-05-10T15:10:40.733Z,14.92
2023-05-10T15:13:07.671Z,14.80
2023-05-10T15:15:34.555Z,14.69
2023-05-10T15:18:03.499Z,14.71
2023-05-10T15:20:33.557Z,14.74
2023-05-10T15:23:00.506Z,14.70
2023-05-10T15:25:27.734Z,14.77
2023-05-10T15:27:57.459Z,14.72
2023-05-10T15:30:27.877Z,14.66
2023-05-10T15:32:54.835Z,14.70
2023-05-10T15:35:22.026Z,14.69
2023-05-10T15:37:51.167Z,14.71
2023-05-10T15:40:21.309Z,14.70
2023-05-10T15:42:48.238Z,14.59
2023-05-10T15:45:18.797Z,14.50
2023-05-10T15:47:46.265Z,14.53
2023-05-10T15:50:13.368Z,14.40
2023-05-10T15:52:40.366Z,14.36
2023-05-10T15:55:07.974Z,14.28
2023-05-10T15:57:37.477Z,14.18
2023-05-10T16:00:04.887Z,14.16
2023-05-10T16:02:32.702Z,14.21
2023-05-10T16:04:59.687Z,14.06
2023-05-10T16:07:26.702Z,14.01
2023-05-10T16:09:53.669Z,13.96
2023-05-10T16:12:20.803Z,13.86
2023-05-10T16:14:48.710Z,13.96
2023-05-10T16:17:19.269Z,13.97
2023-05-10T16:19:55.562Z,13.77
2023-05-10T16:22:34.892Z,13.66
2023-05-10T16:25:02.170Z,13.74
2023-05-10T16:27:29.029Z,13.78
2023-05-10T16:29:56.595Z,13.75
2023-05-10T16:32:23.681Z,13.80
2023-05-10T16:34:50.656Z,13.86
2023-05-10T16:37:17.655Z,13.68
2023-05-10T16:39:44.920Z,13.50
2023-05-10T16:42:11.802Z,13.43
2023-05-10T16:44:38.963Z,13.42
2023-05-10T16:47:06.097Z,13.32
2023-05-10T16:49:33.380Z,13.12
2023-05-10T16:52:03.599Z,13.23
2023-05-10T16:54:30.544Z,13.03
2023-05-10T16:56:57.524Z,12.76
2023-05-10T16:59:27.320Z,12.69
2023-05-10T17:01:55.084Z,12.86
2023-05-10T17:04:22.060Z,13.00
2023-05-10T17:06:49.256Z,12.97
2023-05-10T17:09:16.318Z,13.09
2023-05-10T17:11:43.369Z,12.93
2023-05-10T17:14:10.321Z,12.81
2023-05-10T17:16:37.427Z,12.87
2023-05-10T17:19:04.367Z,12.82
2023-05-10T17:21:31.347Z,12.75
2023-05-10T17:23:58.529Z,12.75
2023-05-10T17:26:28.745Z,12.71
2023-05-10T17:28:56.077Z,12.71
2023-05-10T17:31:26.528Z,12.57
2023-05-10T17:33:53.848Z,12.47
2023-05-10T17:36:23.479Z,12.44
2023-05-10T17:38:50.520Z,12.35
2023-05-10T17:41:17.954Z,12.40
2023-05-10T17:43:45.077Z,12.35
2023-05-10T17:46:12.070Z,12.24
2023-05-10T17:48:39.418Z,12.37
2023-05-10T17:51:06.645Z,12.36
2023-05-10T17:53:34.613Z,12.19
2023-05-10T17:56:01.815Z,12.11
2023-05-10T17:58:29.148Z,11.94
2023-05-10T18:00:56.550Z,11.86
2023-05-10T18:03:23.961Z,11.61
2023-05-10T18:05:54.131Z,11.40
2023-05-10T18:08:21.467Z,11.32
2023-05-10T18:10:51.663Z,11.24
2023-05-10T18:13:18.881Z,11.16
2023-05-10T18:15:46.095Z,10.95
2023-05-10T18:18:14.684Z,11.00
2023-05-10T18:20:41.684Z,10.97
2023-05-10T18:23:08.740Z,10.86
2023-05-10T18:25:36.020Z,10.95
2023-05-10T18:28:03.134Z,10.93
2023-05-10T18:30:30.804Z,10.89
2023-05-10T18:32:58.317Z,10.84
2023-05-10T18:35:25.950Z,11.00
2023-05-10T18:37:53.007Z,11.01
2023-05-10T18:40:20.456Z,11.03
2023-05-10T18:42:47.517Z,11.03
2023-05-10T18:45:14.985Z,11.13
2023-05-10T18:47:42.491Z,11.22
2023-05-10T18:50:12.115Z,11.15
2023-05-10T18:52:41.883Z,11.04
2023-05-10T18:55:09.801Z,11.09
2023-05-10T18:57:36.790Z,11.15
2023-05-10T19:00:04.140Z,11.17
2023-05-10T19:02:31.316Z,11.19
2023-05-10T19:04:58.419Z,11.25
2023-05-10T19:07:31.613Z,11.32
2023-05-10T19:09:58.809Z,11.25
2023-05-10T19:12:31.697Z,11.33
2023-05-10T19:14:59.109Z,11.36
2023-05-10T19:17:26.698Z,11.39
2023-05-10T19:19:56.171Z,11.48
2023-05-10T19:25:00.235Z,11.27
2023-05-10T19:27:27.690Z,11.40
2023-05-10T19:29:56.685Z,11.35
2023-05-10T19:32:25.755Z,11.31
2023-05-10T19:35:00.184Z,11.35
2023-05-10T19:37:31.346Z,11.30
2023-05-10T19:40:01.686Z,11.35
2023-05-10T19:42:30.082Z,11.18
2023-05-10T19:44:59.672Z,11.13
2023-05-10T19:47:27.490Z,11.04
2023-05-10T19:49:54.902Z,11.00
2023-05-10T19:52:27.141Z,10.83
2023-05-10T19:54:54.364Z,10.78
2023-05-10T19:57:22.018Z,10.74
2023-05-10T19:59:51.653Z,10.67
2023-05-10T20:02:21.639Z,10.78
2023-05-10T20:04:50.954Z,10.72
2023-05-10T20:07:21.334Z,10.50
2023-05-10T20:09:48.677Z,10.37
2023-05-10T20:12:16.025Z,10.17
2023-05-10T20:14:43.370Z,10.21
2023-05-10T20:17:12.429Z,10.18
2023-05-10T20:19:39.697Z,10.17
2023-05-10T20:22:09.055Z,10.11
2023-05-10T20:24:37.272Z,9.84
2023-05-10T20:27:06.198Z,9.91
2023-05-10T20:29:33.751Z,9.84
2023-05-10T20:32:01.220Z,9.88
2023-05-10T20:34:28.631Z,9.63
2023-05-10T20:36:55.806Z,9.48
2023-05-10T20:39:22.898Z,9.45
2023-05-10T20:41:50.023Z,9.62
2023-05-10T20:44:17.385Z,9.62
2023-05-10T20:46:44.494Z,9.65
2023-05-10T20:49:11.704Z,9.58
2023-05-10T20:51:42.777Z,9.55
2023-05-10T20:54:10.654Z,9.56
2023-05-10T20:56:39.407Z,9.69
2023-05-10T20:59:09.831Z,9.76
2023-05-10T21:01:39.742Z,9.67
2023-05-10T21:04:09.026Z,9.58
2023-05-10T21:06:36.614Z,9.73
2023-05-10T21:09:04.125Z,9.67
2023-05-10T21:11:35.362Z,9.66
2023-05-10T21:14:03.079Z,9.77
2023-05-10T21:16:30.228Z,9.78
2023-05-10T21:18:57.317Z,9.79
2023-05-10T21:21:24.498Z,9.85
2023-05-10T21:23:51.465Z,9.65
2023-05-10T21:26:18.531Z,9.68
2023-05-10T21:28:46.276Z,9.61
2023-05-10T21:31:13.243Z,9.56
2023-05-10T21:33:40.876Z,9.63
2023-05-10T21:36:07.851Z,9.66
2023-05-10T21:38:35.028Z,9.73
2023-05-10T21:41:02.053Z,9.65
2023-05-10T21:43:29.038Z,9.68
2023-05-10T21:45:56.189Z,9.71
2023-05-10T21:48:23.258Z,9.63
2023-05-10T21:50:50.105Z,9.62
2023-05-10T21:53:17.019Z,9.56
2023-05-10T21:55:44.114Z,9.53
2023-05-10T21:58:11.030Z,9.71
2023-05-10T22:00:37.911Z,9.66
2023-05-10T22:03:05.081Z,9.69
2023-05-10T22:05:31.922Z,9.65
2023-05-10T22:07:58.806Z,9.57
2023-05-10T22:10:25.779Z,9.71
2023-05-10T22:12:52.662Z,9.62
2023-05-10T22:15:19.583Z,9.64
2023-05-10T22:17:46.677Z,9.58
2023-05-10T22:20:13.669Z,9.58
2023-05-10T22:22:40.515Z,9.55
2023-05-10T22:25:07.882Z,9.56
2023-05-10T22:27:35.107Z,9.63
2023-05-10T22:30:02.368Z,9.59
2023-05-10T22:32:29.461Z,9.61
2023-05-10T22:34:56.385Z,9.63
2023-05-10T22:37:23.385Z,9.61
2023-05-10T22:39:50.387Z,9.57
2023-05-10T22:42:17.320Z,9.58
2023-05-10T22:44:44.140Z,9.57
2023-05-10T22:47:11.187Z,9.54
2023-05-10T22:49:38.243Z,9.50
2023-05-10T22:52:05.128Z,9.56
2023-05-10T22:54:33.698Z,9.45
2023-05-10T22:57:01.875Z,9.44
2023-05-10T22:59:28.919Z,9.49
2023-05-10T23:01:56.117Z,9.46
2023-05-10T23:04:23.048Z,9.43
2023-05-10T23:06:49.914Z,9.42
2023-05-10T23:09:17.137Z,9.35
2023-05-10T23:11:44.166Z,9.37
2023-05-10T23:14:10.988Z,9.45
2023-05-10T23:16:38.181Z,9.45
2023-05-10T23:19:05.227Z,9.57
2023-05-10T23:21:32.361Z,9.62
2023-05-10T23:23:59.362Z,9.45
2023-05-10T23:26:26.313Z,9.49
2023-05-10T23:28:53.150Z,9.51
2023-05-10T23:31:20.132Z,9.45
2023-05-10T23:33:47.066Z,9.43
2023-05-10T23:36:13.905Z,9.40
2023-05-10T23:38:40.821Z,9.54
2023-05-10T23:41:07.678Z,9.45
2023-05-10T23:43:34.645Z,9.45
2023-05-10T23:46:01.987Z,9.43
2023-05-10T23:48:29.001Z,9.35
2023-05-10T23:50:55.910Z,9.38
2023-05-10T23:53:22.831Z,9.24
2023-05-10T23:55:49.683Z,9.22
2023-05-10T23:58:16.605Z,9.29
